Nautilus — ISPC — position and weather

sailwx.info

Track history (hours):
 
Tides and Currents Weather Stations Pressure Air Temp Water Temp Dewpoint Dewpoint Depression Visibility Wind Speed Wind Dir Waves Ship Positions

Nautilus

Last reported at 2017-Jun-24 17:30 UTC. Time now 2017-Jun-24 17:29 UTC.
Position N 42°49' E 010°12'.

Length 25 m.

Type: Ship. MMSI: 247205700.

Date/timePositionNaut miles runAvg speedWind from/ knotsBaromVisibWave heightAir tempDewpointWater temp
2017-Jun-24 17:30N 42°49' E 010°12'0 0.0
2017-Jun-24 17:00N 42°49' E 010°12'0 0.0
2017-Jun-24 16:28N 42°49' E 010°12'0 0.3
2017-Jun-24 16:00N 42°48' E 010°12'4 6.8
2017-Jun-24 15:29N 42°48' E 010°07'4 4.5
2017-Jun-24 14:42N 42°45' E 010°07'4 5.8
2017-Jun-24 14:00N 42°49' E 010°08'3 5.2
2017-Jun-24 13:28N 42°48' E 010°12'0 0.0
2017-Jun-24 11:47N 42°48' E 010°12'1 2.1
2017-Jun-24 11:30N 42°49' E 010°13'1 0.1
2017-Jun-24 06:55N 42°49' E 010°12'0 0.0
2017-Jun-24 06:30N 42°49' E 010°12'0 0.0
2017-Jun-24 06:00N 42°49' E 010°12'0 0.0
2017-Jun-24 05:30N 42°49' E 010°12'0 0.0
2017-Jun-24 05:00N 42°49' E 010°12'0 0.0
2017-Jun-24 04:30N 42°49' E 010°12'0 0.0
2017-Jun-24 04:00N 42°49' E 010°12'0 0.0
2017-Jun-24 03:30N 42°49' E 010°12'0 0.0
2017-Jun-24 03:00N 42°49' E 010°12'0 0.0
2017-Jun-24 02:30N 42°49' E 010°12'0 0.0
2017-Jun-24 02:00N 42°49' E 010°12'0 0.0
2017-Jun-24 01:30N 42°49' E 010°12'0 0.0
2017-Jun-24 01:00N 42°49' E 010°12'0 0.0
2017-Jun-24 00:26N 42°49' E 010°12'0 0.0
2017-Jun-23 23:59N 42°49' E 010°12'0 0.0
2017-Jun-23 23:30N 42°49' E 010°12'0 0.0
2017-Jun-23 22:59N 42°49' E 010°12'0 0.0
2017-Jun-23 22:26N 42°49' E 010°12'0 0.0
2017-Jun-23 21:56N 42°49' E 010°12'0 0.0
2017-Jun-23 21:25N 42°49' E 010°12'0 0.0
2017-Jun-23 20:26N 42°49' E 010°12'0 0.0
2017-Jun-23 19:50N 42°49' E 010°12'0 0.0
2017-Jun-23 18:36N 42°49' E 010°12'0 0.0
2017-Jun-23 18:24N 42°49' E 010°12'0 0.0
2017-Jun-23 17:53N 42°49' E 010°12'0 0.0
2017-Jun-23 17:27N 42°49' E 010°12'0 0.0
2017-Jun-23 17:00N 42°49' E 010°12'0 0.0
2017-Jun-23 16:28N 42°49' E 010°12'0 0.3
2017-Jun-23 16:00N 42°48' E 010°12'0 0.1
2017-Jun-23 13:40N 42°49' E 010°12'0 1.5
2017-Jun-23 13:26N 42°48' E 010°12'0 0.0
2017-Jun-23 13:00N 42°48' E 010°12'0 0.0
2017-Jun-23 12:10N 42°48' E 010°12'0 0.0
2017-Jun-23 11:43N 42°48' E 010°12'1 3.9
2017-Jun-23 11:30N 42°49' E 010°13'0 0.1
2017-Jun-23 07:01N 42°49' E 010°13'0 7.7
2017-Jun-23 06:59N 42°49' E 010°13'1 2.2
2017-Jun-23 06:30N 42°49' E 010°12'0 0.0
2017-Jun-23 06:00N 42°49' E 010°12'0 0.0
2017-Jun-23 05:30N 42°49' E 010°12'0 0.0
2017-Jun-23 04:57N 42°49' E 010°12'0 0.0
2017-Jun-23 04:30N 42°49' E 010°12'0 0.0
2017-Jun-23 03:55N 42°49' E 010°12'0 0.0
2017-Jun-23 03:26N 42°49' E 010°12'0 0.0
2017-Jun-23 03:00N 42°49' E 010°12'0 0.0
2017-Jun-23 02:30N 42°49' E 010°12'0 0.0
2017-Jun-23 02:00N 42°49' E 010°12'0 0.0
2017-Jun-23 01:29N 42°49' E 010°12'0 0.0
2017-Jun-23 01:00N 42°49' E 010°12'0 0.0
2017-Jun-23 00:28N 42°49' E 010°12'0 0.0
2017-Jun-22 23:59N 42°49' E 010°12'0 0.0
2017-Jun-22 23:29N 42°49' E 010°12'0 0.0
2017-Jun-22 23:00N 42°49' E 010°12'0 0.0
2017-Jun-22 22:30N 42°49' E 010°12'0 0.0
2017-Jun-22 22:00N 42°49' E 010°12'0 0.0
2017-Jun-22 21:28N 42°49' E 010°12'0 0.0
2017-Jun-22 21:00N 42°49' E 010°12'0 0.0
2017-Jun-22 20:29N 42°49' E 010°12'0 0.0
2017-Jun-22 20:00N 42°49' E 010°12'0 0.0
2017-Jun-22 19:30N 42°49' E 010°12'0 0.0
2017-Jun-22 18:59N 42°49' E 010°12'0 0.0
2017-Jun-22 17:56N 42°49' E 010°12'0 0.0
2017-Jun-22 17:29N 42°49' E 010°12'0 0.0
2017-Jun-22 16:50N 42°49' E 010°12'0 0.0
2017-Jun-22 16:25N 42°49' E 010°12'0 0.2
2017-Jun-22 15:59N 42°49' E 010°12'4 7.9
2017-Jun-22 15:30N 42°48' E 010°07'2 2.2
2017-Jun-22 14:32N 42°46' E 010°06'3 5.1
2017-Jun-22 14:00N 42°48' E 010°08'3 6.3
2017-Jun-22 13:30N 42°48' E 010°12'0 0.0
2017-Jun-22 13:00N 42°48' E 010°12'0 0.0
2017-Jun-22 12:29N 42°48' E 010°12'1 3.1
2017-Jun-22 12:00N 42°49' E 010°14'4 8.1
2017-Jun-22 11:30N 42°50' E 010°19'1 1.1
2017-Jun-22 10:37N 42°49' E 010°20'0 0.5
2017-Jun-22 10:23N 42°49' E 010°20'1 2.2
2017-Jun-22 10:00N 42°50' E 010°20'2 4.3
2017-Jun-22 09:30N 42°50' E 010°17'1 1.1
2017-Jun-22 09:00N 42°50' E 010°17'2 1.7
2017-Jun-22 07:58N 42°49' E 010°20'3 5.8
2017-Jun-22 07:30N 42°50' E 010°16'4 7.0
2017-Jun-22 07:00N 42°48' E 010°12'0 0.1
2017-Jun-22 06:30N 42°49' E 010°12'0 0.0
2017-Jun-22 06:00N 42°49' E 010°12'0 0.0
2017-Jun-22 05:30N 42°49' E 010°12'0 0.0
2017-Jun-22 04:57N 42°49' E 010°12'0 0.0
2017-Jun-22 04:29N 42°49' E 010°12'0 0.0
2017-Jun-22 04:00N 42°49' E 010°12'0 0.0
2017-Jun-22 03:29N 42°49' E 010°12'0 0.0
2017-Jun-22 02:58N 42°49' E 010°12'0 0.0
2017-Jun-22 02:30N 42°49' E 010°12'0 0.0
2017-Jun-22 02:00N 42°49' E 010°12'0 0.0
2017-Jun-22 01:30N 42°49' E 010°12'0 0.0
2017-Jun-22 01:00N 42°49' E 010°12'0 0.0
2017-Jun-22 00:30N 42°49' E 010°12'0 0.0
2017-Jun-22 00:00N 42°49' E 010°12'0 0.0
2017-Jun-21 23:30N 42°49' E 010°12'0 0.0
2017-Jun-21 23:00N 42°49' E 010°12'0 0.0
2017-Jun-21 22:30N 42°49' E 010°12'0 0.0
2017-Jun-21 21:27N 42°49' E 010°12'0 0.0
2017-Jun-21 20:56N 42°49' E 010°12'0 0.0
2017-Jun-21 19:34N 42°49' E 010°12'0 0.0
2017-Jun-21 19:29N 42°49' E 010°12'0 0.0
2017-Jun-21 19:00N 42°49' E 010°12'0 0.0
2017-Jun-21 17:41N 42°49' E 010°12'0 0.0
2017-Jun-21 17:28N 42°49' E 010°12'0 0.0
2017-Jun-21 17:00N 42°49' E 010°12'0 0.0
2017-Jun-21 16:29N 42°49' E 010°12'0 0.3
2017-Jun-21 16:00N 42°48' E 010°12'3 6.9
2017-Jun-21 15:30N 42°48' E 010°07'3 2.6
2017-Jun-21 14:32N 42°46' E 010°06'3 5.5
2017-Jun-21 14:00N 42°49' E 010°08'3 3.1
2017-Jun-21 13:05N 42°48' E 010°12'0 0.0
2017-Jun-21 12:59N 42°48' E 010°12'0 0.0
2017-Jun-21 11:46N 42°48' E 010°12'2 4.3
2017-Jun-21 11:19N 42°49' E 010°14'4 7.7
2017-Jun-21 10:46N 42°49' E 010°20'1 0.6
2017-Jun-21 09:43N 42°49' E 010°19'2 4.6
2017-Jun-21 09:14N 42°49' E 010°16'1 3.3
2017-Jun-21 09:00N 42°50' E 010°17'2 3.3
2017-Jun-21 08:24N 42°49' E 010°19'0 0.0
2017-Jun-21 07:57N 42°49' E 010°19'6 5.5
2017-Jun-21 06:56N 42°48' E 010°12'0 0.1
2017-Jun-21 06:30N 42°49' E 010°12'0 0.0
2017-Jun-21 06:00N 42°49' E 010°12'0 0.0
2017-Jun-21 05:30N 42°49' E 010°12'0 0.0
2017-Jun-21 04:58N 42°49' E 010°12'0 0.0
2017-Jun-21 04:30N 42°49' E 010°12'0 0.0
2017-Jun-21 04:00N 42°49' E 010°12'0 0.0
2017-Jun-21 03:30N 42°49' E 010°12'0 0.0
2017-Jun-21 03:00N 42°49' E 010°12'0 0.0
2017-Jun-21 02:30N 42°49' E 010°12'0 0.0
2017-Jun-21 02:00N 42°49' E 010°12'0 0.0
2017-Jun-21 01:30N 42°49' E 010°12'0 0.0
2017-Jun-21 01:00N 42°49' E 010°12'0 0.0
2017-Jun-21 00:30N 42°49' E 010°12'0 0.0
2017-Jun-21 00:00N 42°49' E 010°12'0 0.0
2017-Jun-20 23:30N 42°49' E 010°12'0 0.0
2017-Jun-20 23:00N 42°49' E 010°12'0 0.0
2017-Jun-20 22:29N 42°49' E 010°12'0 0.0
2017-Jun-20 22:00N 42°49' E 010°12'0 0.0
2017-Jun-20 21:30N 42°49' E 010°12'0 0.0
2017-Jun-20 21:00N 42°49' E 010°12'0 0.0
2017-Jun-20 20:30N 42°49' E 010°12'0 0.0
2017-Jun-20 19:50N 42°49' E 010°12'0 0.0
2017-Jun-20 18:34N 42°49' E 010°12'0 0.0
2017-Jun-20 18:14N 42°49' E 010°12'0 0.0
2017-Jun-20 17:42N 42°49' E 010°12'2 0.5
2017-Jun-20 13:55N 42°49' E 010°09'2 5.1
2017-Jun-20 13:30N 42°48' E 010°12'0 0.0
2017-Jun-20 12:55N 42°48' E 010°12'0 0.0
2017-Jun-20 12:30N 42°48' E 010°12'0 0.0
2017-Jun-20 12:00N 42°48' E 010°12'0 0.3
2017-Jun-20 11:30N 42°49' E 010°12'4 8.0
2017-Jun-20 11:00N 42°50' E 010°17'2 3.6
2017-Jun-20 10:30N 42°49' E 010°19'1 1.5
2017-Jun-20 10:00N 42°50' E 010°19'2 4.4
2017-Jun-20 09:30N 42°50' E 010°16'1 1.9
2017-Jun-20 09:00N 42°50' E 010°18'1 2.7
2017-Jun-20 08:27N 42°49' E 010°19'0 0.0
2017-Jun-20 08:00N 42°49' E 010°19'1 2.6
2017-Jun-20 07:30N 42°50' E 010°18'4 7.8
2017-Jun-20 07:00N 42°49' E 010°13'1 1.8
2017-Jun-20 06:30N 42°49' E 010°12'0 0.0
2017-Jun-20 06:00N 42°49' E 010°12'0 0.0
2017-Jun-20 05:30N 42°49' E 010°12'0 0.0
2017-Jun-20 05:00N 42°49' E 010°12'0 0.0
2017-Jun-20 03:13N 42°49' E 010°12'0 0.0
2017-Jun-20 01:43N 42°49' E 010°12'0 0.0
2017-Jun-19 23:13N 42°49' E 010°12'0 0.0
2017-Jun-19 22:57N 42°49' E 010°12'0 0.0
2017-Jun-19 22:30N 42°49' E 010°12'0 0.0
2017-Jun-19 22:00N 42°49' E 010°12'0 0.0
2017-Jun-19 21:30N 42°49' E 010°12'0 0.0
2017-Jun-19 21:00N 42°49' E 010°12'0 0.0
2017-Jun-19 20:30N 42°49' E 010°12'0 0.0
2017-Jun-19 19:57N 42°49' E 010°12'0 0.0
2017-Jun-19 19:28N 42°49' E 010°12'0 0.0
2017-Jun-19 18:59N 42°49' E 010°12'0 0.0
2017-Jun-19 18:27N 42°49' E 010°12'0 0.0
2017-Jun-19 17:58N 42°49' E 010°12'0 0.0
2017-Jun-19 17:29N 42°49' E 010°12'0 0.0
2017-Jun-19 16:59N 42°49' E 010°12'0 0.3
2017-Jun-19 16:19N 42°48' E 010°12'2 6.5
2017-Jun-19 16:00N 42°49' E 010°09'4 7.5
2017-Jun-19 15:30N 42°46' E 010°06'0 0.3
2017-Jun-19 14:33N 42°46' E 010°06'0 2.8
2017-Jun-19 14:30N 42°46' E 010°06'5 4.4
2017-Jun-19 13:25N 42°48' E 010°12'0 0.0
2017-Jun-19 12:59N 42°48' E 010°12'0 0.0
2017-Jun-19 11:49N 42°48' E 010°12'0 0.1
2017-Jun-19 07:01N 42°49' E 010°12'0 4.2
2017-Jun-19 06:59N 42°49' E 010°12'0 0.4
2017-Jun-19 06:30N 42°49' E 010°12'0 0.0
2017-Jun-19 06:00N 42°49' E 010°12'0 0.0
2017-Jun-19 05:30N 42°49' E 010°12'0 0.0
2017-Jun-19 05:00N 42°49' E 010°12'0 0.0
2017-Jun-19 04:30N 42°49' E 010°12'0 0.0
2017-Jun-19 04:00N 42°49' E 010°12'0 0.0
2017-Jun-19 03:30N 42°49' E 010°12'0 0.0
2017-Jun-19 03:00N 42°49' E 010°12'0 0.0
2017-Jun-19 02:30N 42°49' E 010°12'0 0.0
2017-Jun-19 01:59N 42°49' E 010°12'0 0.0
2017-Jun-19 01:30N 42°49' E 010°12'0 0.0
2017-Jun-19 01:00N 42°49' E 010°12'0 0.0
2017-Jun-19 00:30N 42°49' E 010°12'0 0.0
2017-Jun-19 00:00N 42°49' E 010°12'0 0.0
2017-Jun-18 23:30N 42°49' E 010°12'0 0.0
2017-Jun-18 23:00N 42°49' E 010°12'0 0.0
2017-Jun-18 22:30N 42°49' E 010°12'0 0.0
2017-Jun-18 22:00N 42°49' E 010°12'0 0.0
2017-Jun-18 21:30N 42°49' E 010°12'0 0.0
2017-Jun-18 21:00N 42°49' E 010°12'0 0.0
2017-Jun-18 20:30N 42°49' E 010°12'0 0.0
2017-Jun-18 17:26N 42°49' E 010°12'0 0.0
2017-Jun-18 16:28N 42°49' E 010°12'2 5.2
2017-Jun-18 16:00N 42°49' E 010°09'1 0.6
2017-Jun-18 14:30N 42°48' E 010°07'3 6.6
2017-Jun-18 14:00N 42°48' E 010°12'0 0.0
2017-Jun-18 09:41N 42°48' E 010°12'0 0.1
2017-Jun-18 09:28N 42°48' E 010°12'0 0.0
2017-Jun-18 08:55N 42°48' E 010°12'0 0.4
2017-Jun-18 08:30N 42°49' E 010°12'0 0.0
2017-Jun-18 08:00N 42°49' E 010°12'0 0.0
2017-Jun-18 07:30N 42°49' E 010°12'0 0.0
2017-Jun-18 07:00N 42°49' E 010°12'0 0.0
2017-Jun-18 06:30N 42°49' E 010°12'0 0.0
2017-Jun-18 06:00N 42°49' E 010°12'0 0.0
2017-Jun-18 05:30N 42°49' E 010°12'0 0.0
2017-Jun-18 05:00N 42°49' E 010°12'0 0.0
2017-Jun-18 04:30N 42°49' E 010°12'0 0.0
2017-Jun-18 04:00N 42°49' E 010°12'0 0.0
2017-Jun-18 03:30N 42°49' E 010°12'0 0.0
2017-Jun-18 03:00N 42°49' E 010°12'0 0.0
2017-Jun-18 02:30N 42°49' E 010°12'0 0.0
2017-Jun-18 02:00N 42°49' E 010°12'0 0.0
2017-Jun-18 01:30N 42°49' E 010°12'0 0.0
2017-Jun-18 01:00N 42°49' E 010°12'0 0.0
2017-Jun-18 00:30N 42°49' E 010°12'0 0.0
2017-Jun-18 00:00N 42°49' E 010°12'0 0.0
2017-Jun-17 23:29N 42°49' E 010°12'0 0.0
2017-Jun-17 23:00N 42°49' E 010°12'0 0.0
2017-Jun-17 21:57N 42°49' E 010°12'0 0.0
2017-Jun-17 21:29N 42°49' E 010°12'0 0.0
2017-Jun-17 21:00N 42°49' E 010°12'0 0.0
2017-Jun-17 20:30N 42°49' E 010°12'0 0.0
2017-Jun-17 19:55N 42°49' E 010°12'0 0.0
2017-Jun-17 19:30N 42°49' E 010°12'0 0.0
2017-Jun-17 18:24N 42°49' E 010°12'0 0.0
2017-Jun-17 17:52N 42°49' E 010°12'0 0.0
2017-Jun-17 17:30N 42°49' E 010°12'0 0.0
2017-Jun-17 17:00N 42°49' E 010°12'0 0.0
2017-Jun-17 16:30N 42°49' E 010°12'0 0.3
2017-Jun-17 16:00N 42°48' E 010°12'3 5.8
2017-Jun-17 15:28N 42°49' E 010°08'3 7.0
2017-Jun-17 15:00N 42°46' E 010°06'0 0.7
2017-Jun-17 14:28N 42°46' E 010°06'10 2.0
2017-Jun-17 09:41N 42°49' E 010°19'2 8.3
2017-Jun-17 09:30N 42°50' E 010°17'1 1.6
2017-Jun-17 09:00N 42°50' E 010°18'2 1.7
2017-Jun-17 07:48N 42°49' E 010°20'5 7.2
2017-Jun-17 07:09N 42°49' E 010°14'1 6.4
2017-Jun-17 06:57N 42°49' E 010°12'0 0.4
2017-Jun-17 06:27N 42°49' E 010°12'0 0.0
2017-Jun-17 05:50N 42°49' E 010°12'0 0.0
2017-Jun-17 05:30N 42°49' E 010°12'0 0.0
2017-Jun-17 05:00N 42°49' E 010°12'0 0.0
2017-Jun-17 04:30N 42°49' E 010°12'0 0.0
2017-Jun-17 04:00N 42°49' E 010°12'0 0.0
2017-Jun-17 03:28N 42°49' E 010°12'0 0.0
2017-Jun-17 03:00N 42°49' E 010°12'0 0.0
2017-Jun-17 02:30N 42°49' E 010°12'0 0.0
2017-Jun-17 01:56N 42°49' E 010°12'0 0.0
2017-Jun-17 01:20N 42°49' E 010°12'0 0.0
2017-Jun-17 01:00N 42°49' E 010°12'0 0.0
2017-Jun-17 00:29N 42°49' E 010°12'0 0.0
2017-Jun-16 23:59N 42°49' E 010°12'0 0.0
2017-Jun-16 22:07N 42°49' E 010°12'0 0.0
2017-Jun-16 22:00N 42°49' E 010°12'0 0.0
2017-Jun-16 21:30N 42°49' E 010°12'0 0.0
2017-Jun-16 21:00N 42°49' E 010°12'0 0.0
2017-Jun-16 20:30N 42°49' E 010°12'0 0.0
2017-Jun-16 20:00N 42°49' E 010°12'0 0.0
2017-Jun-16 19:30N 42°49' E 010°12'0 0.0
2017-Jun-16 19:00N 42°49' E 010°12'0 0.0
2017-Jun-16 18:02N 42°49' E 010°12'0 0.0
2017-Jun-16 18:00N 42°49' E 010°12'0 0.0
2017-Jun-16 17:28N 42°49' E 010°12'0 0.0
2017-Jun-16 16:59N 42°49' E 010°12'0 0.0
2017-Jun-16 16:30N 42°49' E 010°12'0 0.3
2017-Jun-16 15:59N 42°48' E 010°12'5 5.6
2017-Jun-16 15:10N 42°47' E 010°06'1 1.0
2017-Jun-16 14:25N 42°46' E 010°06'5 5.2
2017-Jun-16 13:30N 42°48' E 010°12'0 0.0
2017-Jun-16 12:58N 42°48' E 010°12'0 0.0
2017-Jun-16 12:29N 42°48' E 010°12'0 0.0
2017-Jun-16 12:00N 42°48' E 010°12'2 3.1
2017-Jun-16 11:30N 42°49' E 010°14'5 5.6
2017-Jun-16 10:41N 42°49' E 010°20'1 2.8
2017-Jun-16 10:29N 42°49' E 010°19'1 1.8
2017-Jun-16 10:00N 42°50' E 010°20'1 0.5
2017-Jun-16 07:53N 42°49' E 010°20'3 6.1
2017-Jun-16 07:24N 42°50' E 010°16'3 7.2
2017-Jun-16 06:56N 42°48' E 010°12'0 0.1
2017-Jun-16 06:30N 42°49' E 010°12'0 0.0
2017-Jun-16 06:00N 42°49' E 010°12'0 0.0
2017-Jun-16 05:30N 42°49' E 010°12'0 0.0
2017-Jun-16 05:00N 42°49' E 010°12'0 0.0
2017-Jun-16 04:29N 42°49' E 010°12'0 0.0
2017-Jun-16 04:00N 42°49' E 010°12'0 0.0
2017-Jun-16 03:30N 42°49' E 010°12'0 0.0
2017-Jun-16 03:00N 42°49' E 010°12'0 0.0
2017-Jun-16 02:15N 42°49' E 010°12'0 0.0
2017-Jun-16 02:00N 42°49' E 010°12'0 0.0
2017-Jun-16 01:30N 42°49' E 010°12'0 0.0
2017-Jun-16 01:00N 42°49' E 010°12'0 0.0
2017-Jun-16 00:30N 42°49' E 010°12'0 0.0
2017-Jun-15 23:58N 42°49' E 010°12'0 0.0
2017-Jun-15 23:21N 42°49' E 010°12'0 0.0
2017-Jun-15 23:00N 42°49' E 010°12'0 0.0
2017-Jun-15 22:29N 42°49' E 010°12'0 0.0
2017-Jun-15 22:00N 42°49' E 010°12'0 0.0
2017-Jun-15 21:30N 42°49' E 010°12'0 0.0
2017-Jun-15 21:00N 42°49' E 010°12'0 0.0
2017-Jun-15 20:30N 42°49' E 010°12'0 0.0
2017-Jun-15 20:00N 42°49' E 010°12'0 0.0
2017-Jun-15 19:30N 42°49' E 010°12'0 0.0
2017-Jun-15 19:00N 42°49' E 010°12'0 0.0
2017-Jun-15 18:30N 42°49' E 010°12'0 0.0
2017-Jun-15 18:00N 42°49' E 010°12'0 0.0
2017-Jun-15 17:30N 42°49' E 010°12'0 0.0
2017-Jun-15 17:00N 42°49' E 010°12'0 0.0
2017-Jun-15 16:30N 42°49' E 010°12'0 0.2
2017-Jun-15 15:59N 42°49' E 010°12'5 5.0
2017-Jun-15 14:56N 42°45' E 010°07'2 3.8
2017-Jun-15 14:26N 42°46' E 010°06'5 5.0
2017-Jun-15 13:30N 42°48' E 010°12'0 0.0
2017-Jun-15 12:59N 42°48' E 010°12'0 0.0
2017-Jun-15 12:30N 42°48' E 010°12'0 0.0
2017-Jun-15 12:00N 42°48' E 010°12'0 0.9
2017-Jun-15 11:30N 42°49' E 010°12'5 7.9
2017-Jun-15 10:55N 42°50' E 010°19'1 1.0
2017-Jun-15 09:30N 42°50' E 010°17'4 1.4
2017-Jun-15 06:51N 42°48' E 010°12'0 0.3
2017-Jun-15 06:30N 42°49' E 010°12'0 0.0
2017-Jun-15 06:00N 42°49' E 010°12'0 0.0
2017-Jun-15 05:30N 42°49' E 010°12'0 0.0
2017-Jun-15 04:58N 42°49' E 010°12'0 0.0
2017-Jun-15 04:01N 42°49' E 010°12'0 0.0
2017-Jun-15 03:57N 42°49' E 010°12'0 0.0
2017-Jun-15 03:29N 42°49' E 010°12'0 0.0
2017-Jun-15 02:59N 42°49' E 010°12'0 0.0
2017-Jun-15 02:30N 42°49' E 010°12'0 0.0
2017-Jun-15 02:00N 42°49' E 010°12'0 0.0
2017-Jun-15 01:30N 42°49' E 010°12'0 0.0
2017-Jun-15 01:00N 42°49' E 010°12'0 0.0
2017-Jun-15 00:30N 42°49' E 010°12'0 0.0
2017-Jun-15 00:00N 42°49' E 010°12'0 0.0
2017-Jun-14 23:30N 42°49' E 010°12'0 0.0
2017-Jun-14 23:00N 42°49' E 010°12'0 0.0
2017-Jun-14 22:30N 42°49' E 010°12'0 0.0
2017-Jun-14 22:00N 42°49' E 010°12'0 0.0
2017-Jun-14 21:30N 42°49' E 010°12'0 0.0
2017-Jun-14 20:58N 42°49' E 010°12'0 0.0
2017-Jun-14 20:30N 42°49' E 010°12'0 0.0
2017-Jun-14 20:00N 42°49' E 010°12'0 0.0
2017-Jun-14 19:26N 42°49' E 010°12'0 0.0
2017-Jun-14 19:00N 42°49' E 010°12'0 0.0
2017-Jun-14 18:30N 42°49' E 010°12'0 0.0
2017-Jun-14 18:00N 42°49' E 010°12'  
Track history (hours):
 
Tides and Currents Weather Stations Pressure Air Temp Water Temp Dewpoint Dewpoint Depression Visibility Wind Speed Wind Dir Waves Ship Positions

Nautilus

Last reported at 2017-Jun-24 17:30 UTC. Time now 2017-Jun-24 17:29 UTC.
Position N 42°49' E 010°12'.

Length 25 m.

Type: Ship. MMSI: 247205700.

Date/timePositionNaut miles runAvg speedWind from/ knotsBaromVisibWave heightAir tempDewpointWater temp
2017-Jun-24 17:30N 42°49' E 010°12'0 0.0
2017-Jun-24 17:00N 42°49' E 010°12'0 0.0
2017-Jun-24 16:28N 42°49' E 010°12'0 0.3
2017-Jun-24 16:00N 42°48' E 010°12'4 6.8
2017-Jun-24 15:29N 42°48' E 010°07'4 4.5
2017-Jun-24 14:42N 42°45' E 010°07'4 5.8
2017-Jun-24 14:00N 42°49' E 010°08'3 5.2
2017-Jun-24 13:28N 42°48' E 010°12'0 0.0
2017-Jun-24 11:47N 42°48' E 010°12'1 2.1
2017-Jun-24 11:30N 42°49' E 010°13'1 0.1
2017-Jun-24 06:55N 42°49' E 010°12'0 0.0
2017-Jun-24 06:30N 42°49' E 010°12'0 0.0
2017-Jun-24 06:00N 42°49' E 010°12'0 0.0
2017-Jun-24 05:30N 42°49' E 010°12'0 0.0
2017-Jun-24 05:00N 42°49' E 010°12'0 0.0
2017-Jun-24 04:30N 42°49' E 010°12'0 0.0
2017-Jun-24 04:00N 42°49' E 010°12'0 0.0
2017-Jun-24 03:30N 42°49' E 010°12'0 0.0
2017-Jun-24 03:00N 42°49' E 010°12'0 0.0
2017-Jun-24 02:30N 42°49' E 010°12'0 0.0
2017-Jun-24 02:00N 42°49' E 010°12'0 0.0
2017-Jun-24 01:30N 42°49' E 010°12'0 0.0
2017-Jun-24 01:00N 42°49' E 010°12'0 0.0
2017-Jun-24 00:26N 42°49' E 010°12'0 0.0
2017-Jun-23 23:59N 42°49' E 010°12'0 0.0
2017-Jun-23 23:30N 42°49' E 010°12'0 0.0
2017-Jun-23 22:59N 42°49' E 010°12'0 0.0
2017-Jun-23 22:26N 42°49' E 010°12'0 0.0
2017-Jun-23 21:56N 42°49' E 010°12'0 0.0
2017-Jun-23 21:25N 42°49' E 010°12'0 0.0
2017-Jun-23 20:26N 42°49' E 010°12'0 0.0
2017-Jun-23 19:50N 42°49' E 010°12'0 0.0
2017-Jun-23 18:36N 42°49' E 010°12'0 0.0
2017-Jun-23 18:24N 42°49' E 010°12'0 0.0
2017-Jun-23 17:53N 42°49' E 010°12'0 0.0
2017-Jun-23 17:27N 42°49' E 010°12'0 0.0
2017-Jun-23 17:00N 42°49' E 010°12'0 0.0
2017-Jun-23 16:28N 42°49' E 010°12'0 0.3
2017-Jun-23 16:00N 42°48' E 010°12'0 0.1
2017-Jun-23 13:40N 42°49' E 010°12'0 1.5
2017-Jun-23 13:26N 42°48' E 010°12'0 0.0
2017-Jun-23 13:00N 42°48' E 010°12'0 0.0
2017-Jun-23 12:10N 42°48' E 010°12'0 0.0
2017-Jun-23 11:43N 42°48' E 010°12'1 3.9
2017-Jun-23 11:30N 42°49' E 010°13'0 0.1
2017-Jun-23 07:01N 42°49' E 010°13'0 7.7
2017-Jun-23 06:59N 42°49' E 010°13'1 2.2
2017-Jun-23 06:30N 42°49' E 010°12'0 0.0
2017-Jun-23 06:00N 42°49' E 010°12'0 0.0
2017-Jun-23 05:30N 42°49' E 010°12'0 0.0
2017-Jun-23 04:57N 42°49' E 010°12'0 0.0
2017-Jun-23 04:30N 42°49' E 010°12'0 0.0
2017-Jun-23 03:55N 42°49' E 010°12'0 0.0
2017-Jun-23 03:26N 42°49' E 010°12'0 0.0
2017-Jun-23 03:00N 42°49' E 010°12'0 0.0
2017-Jun-23 02:30N 42°49' E 010°12'0 0.0
2017-Jun-23 02:00N 42°49' E 010°12'0 0.0
2017-Jun-23 01:29N 42°49' E 010°12'0 0.0
2017-Jun-23 01:00N 42°49' E 010°12'0 0.0
2017-Jun-23 00:28N 42°49' E 010°12'0 0.0
2017-Jun-22 23:59N 42°49' E 010°12'0 0.0
2017-Jun-22 23:29N 42°49' E 010°12'0 0.0
2017-Jun-22 23:00N 42°49' E 010°12'0 0.0
2017-Jun-22 22:30N 42°49' E 010°12'0 0.0
2017-Jun-22 22:00N 42°49' E 010°12'0 0.0
2017-Jun-22 21:28N 42°49' E 010°12'0 0.0
2017-Jun-22 21:00N 42°49' E 010°12'0 0.0
2017-Jun-22 20:29N 42°49' E 010°12'0 0.0
2017-Jun-22 20:00N 42°49' E 010°12'0 0.0
2017-Jun-22 19:30N 42°49' E 010°12'0 0.0
2017-Jun-22 18:59N 42°49' E 010°12'0 0.0
2017-Jun-22 17:56N 42°49' E 010°12'0 0.0
2017-Jun-22 17:29N 42°49' E 010°12'0 0.0
2017-Jun-22 16:50N 42°49' E 010°12'0 0.0
2017-Jun-22 16:25N 42°49' E 010°12'0 0.2
2017-Jun-22 15:59N 42°49' E 010°12'4 7.9
2017-Jun-22 15:30N 42°48' E 010°07'2 2.2
2017-Jun-22 14:32N 42°46' E 010°06'3 5.1
2017-Jun-22 14:00N 42°48' E 010°08'3 6.3
2017-Jun-22 13:30N 42°48' E 010°12'0 0.0
2017-Jun-22 13:00N 42°48' E 010°12'0 0.0
2017-Jun-22 12:29N 42°48' E 010°12'1 3.1
2017-Jun-22 12:00N 42°49' E 010°14'4 8.1
2017-Jun-22 11:30N 42°50' E 010°19'1 1.1
2017-Jun-22 10:37N 42°49' E 010°20'0 0.5
2017-Jun-22 10:23N 42°49' E 010°20'1 2.2
2017-Jun-22 10:00N 42°50' E 010°20'2 4.3
2017-Jun-22 09:30N 42°50' E 010°17'1 1.1
2017-Jun-22 09:00N 42°50' E 010°17'2 1.7
2017-Jun-22 07:58N 42°49' E 010°20'3 5.8
2017-Jun-22 07:30N 42°50' E 010°16'4 7.0
2017-Jun-22 07:00N 42°48' E 010°12'0 0.1
2017-Jun-22 06:30N 42°49' E 010°12'0 0.0
2017-Jun-22 06:00N 42°49' E 010°12'0 0.0
2017-Jun-22 05:30N 42°49' E 010°12'0 0.0
2017-Jun-22 04:57N 42°49' E 010°12'0 0.0
2017-Jun-22 04:29N 42°49' E 010°12'0 0.0
2017-Jun-22 04:00N 42°49' E 010°12'0 0.0
2017-Jun-22 03:29N 42°49' E 010°12'0 0.0
2017-Jun-22 02:58N 42°49' E 010°12'0 0.0
2017-Jun-22 02:30N 42°49' E 010°12'0 0.0
2017-Jun-22 02:00N 42°49' E 010°12'0 0.0
2017-Jun-22 01:30N 42°49' E 010°12'0 0.0
2017-Jun-22 01:00N 42°49' E 010°12'0 0.0
2017-Jun-22 00:30N 42°49' E 010°12'0 0.0
2017-Jun-22 00:00N 42°49' E 010°12'0 0.0
2017-Jun-21 23:30N 42°49' E 010°12'0 0.0
2017-Jun-21 23:00N 42°49' E 010°12'0 0.0
2017-Jun-21 22:30N 42°49' E 010°12'0 0.0
2017-Jun-21 21:27N 42°49' E 010°12'0 0.0
2017-Jun-21 20:56N 42°49' E 010°12'0 0.0
2017-Jun-21 19:34N 42°49' E 010°12'0 0.0
2017-Jun-21 19:29N 42°49' E 010°12'0 0.0
2017-Jun-21 19:00N 42°49' E 010°12'0 0.0
2017-Jun-21 17:41N 42°49' E 010°12'0 0.0
2017-Jun-21 17:28N 42°49' E 010°12'0 0.0
2017-Jun-21 17:00N 42°49' E 010°12'0 0.0
2017-Jun-21 16:29N 42°49' E 010°12'0 0.3
2017-Jun-21 16:00N 42°48' E 010°12'3 6.9
2017-Jun-21 15:30N 42°48' E 010°07'3 2.6
2017-Jun-21 14:32N 42°46' E 010°06'3 5.5
2017-Jun-21 14:00N 42°49' E 010°08'3 3.1
2017-Jun-21 13:05N 42°48' E 010°12'0 0.0
2017-Jun-21 12:59N 42°48' E 010°12'0 0.0
2017-Jun-21 11:46N 42°48' E 010°12'2 4.3
2017-Jun-21 11:19N 42°49' E 010°14'4 7.7
2017-Jun-21 10:46N 42°49' E 010°20'1 0.6
2017-Jun-21 09:43N 42°49' E 010°19'2 4.6
2017-Jun-21 09:14N 42°49' E 010°16'1 3.3
2017-Jun-21 09:00N 42°50' E 010°17'2 3.3
2017-Jun-21 08:24N 42°49' E 010°19'0 0.0
2017-Jun-21 07:57N 42°49' E 010°19'6 5.5
2017-Jun-21 06:56N 42°48' E 010°12'0 0.1
2017-Jun-21 06:30N 42°49' E 010°12'0 0.0
2017-Jun-21 06:00N 42°49' E 010°12'0 0.0
2017-Jun-21 05:30N 42°49' E 010°12'0 0.0
2017-Jun-21 04:58N 42°49' E 010°12'0 0.0
2017-Jun-21 04:30N 42°49' E 010°12'0 0.0
2017-Jun-21 04:00N 42°49' E 010°12'0 0.0
2017-Jun-21 03:30N 42°49' E 010°12'0 0.0
2017-Jun-21 03:00N 42°49' E 010°12'0 0.0
2017-Jun-21 02:30N 42°49' E 010°12'0 0.0
2017-Jun-21 02:00N 42°49' E 010°12'0 0.0
2017-Jun-21 01:30N 42°49' E 010°12'0 0.0
2017-Jun-21 01:00N 42°49' E 010°12'0 0.0
2017-Jun-21 00:30N 42°49' E 010°12'0 0.0
2017-Jun-21 00:00N 42°49' E 010°12'0 0.0
2017-Jun-20 23:30N 42°49' E 010°12'0 0.0
2017-Jun-20 23:00N 42°49' E 010°12'0 0.0
2017-Jun-20 22:29N 42°49' E 010°12'0 0.0
2017-Jun-20 22:00N 42°49' E 010°12'0 0.0
2017-Jun-20 21:30N 42°49' E 010°12'0 0.0
2017-Jun-20 21:00N 42°49' E 010°12'0 0.0
2017-Jun-20 20:30N 42°49' E 010°12'0 0.0
2017-Jun-20 19:50N 42°49' E 010°12'0 0.0
2017-Jun-20 18:34N 42°49' E 010°12'0 0.0
2017-Jun-20 18:14N 42°49' E 010°12'0 0.0
2017-Jun-20 17:42N 42°49' E 010°12'2 0.5
2017-Jun-20 13:55N 42°49' E 010°09'2 5.1
2017-Jun-20 13:30N 42°48' E 010°12'0 0.0
2017-Jun-20 12:55N 42°48' E 010°12'0 0.0
2017-Jun-20 12:30N 42°48' E 010°12'0 0.0
2017-Jun-20 12:00N 42°48' E 010°12'0 0.3
2017-Jun-20 11:30N 42°49' E 010°12'4 8.0
2017-Jun-20 11:00N 42°50' E 010°17'2 3.6
2017-Jun-20 10:30N 42°49' E 010°19'1 1.5
2017-Jun-20 10:00N 42°50' E 010°19'2 4.4
2017-Jun-20 09:30N 42°50' E 010°16'1 1.9
2017-Jun-20 09:00N 42°50' E 010°18'1 2.7
2017-Jun-20 08:27N 42°49' E 010°19'0 0.0
2017-Jun-20 08:00N 42°49' E 010°19'1 2.6
2017-Jun-20 07:30N 42°50' E 010°18'4 7.8
2017-Jun-20 07:00N 42°49' E 010°13'1 1.8
2017-Jun-20 06:30N 42°49' E 010°12'0 0.0
2017-Jun-20 06:00N 42°49' E 010°12'0 0.0
2017-Jun-20 05:30N 42°49' E 010°12'0 0.0
2017-Jun-20 05:00N 42°49' E 010°12'0 0.0
2017-Jun-20 03:13N 42°49' E 010°12'0 0.0
2017-Jun-20 01:43N 42°49' E 010°12'0 0.0
2017-Jun-19 23:13N 42°49' E 010°12'0 0.0
2017-Jun-19 22:57N 42°49' E 010°12'0 0.0
2017-Jun-19 22:30N 42°49' E 010°12'0 0.0
2017-Jun-19 22:00N 42°49' E 010°12'0 0.0
2017-Jun-19 21:30N 42°49' E 010°12'0 0.0
2017-Jun-19 21:00N 42°49' E 010°12'0 0.0
2017-Jun-19 20:30N 42°49' E 010°12'0 0.0
2017-Jun-19 19:57N 42°49' E 010°12'0 0.0
2017-Jun-19 19:28N 42°49' E 010°12'0 0.0
2017-Jun-19 18:59N 42°49' E 010°12'0 0.0
2017-Jun-19 18:27N 42°49' E 010°12'0 0.0
2017-Jun-19 17:58N 42°49' E 010°12'0 0.0
2017-Jun-19 17:29N 42°49' E 010°12'0 0.0
2017-Jun-19 16:59N 42°49' E 010°12'0 0.3
2017-Jun-19 16:19N 42°48' E 010°12'2 6.5
2017-Jun-19 16:00N 42°49' E 010°09'4 7.5
2017-Jun-19 15:30N 42°46' E 010°06'0 0.3
2017-Jun-19 14:33N 42°46' E 010°06'0 2.8
2017-Jun-19 14:30N 42°46' E 010°06'5 4.4
2017-Jun-19 13:25N 42°48' E 010°12'0 0.0
2017-Jun-19 12:59N 42°48' E 010°12'0 0.0
2017-Jun-19 11:49N 42°48' E 010°12'0 0.1
2017-Jun-19 07:01N 42°49' E 010°12'0 4.2
2017-Jun-19 06:59N 42°49' E 010°12'0 0.4
2017-Jun-19 06:30N 42°49' E 010°12'0 0.0
2017-Jun-19 06:00N 42°49' E 010°12'0 0.0
2017-Jun-19 05:30N 42°49' E 010°12'0 0.0
2017-Jun-19 05:00N 42°49' E 010°12'0 0.0
2017-Jun-19 04:30N 42°49' E 010°12'0 0.0
2017-Jun-19 04:00N 42°49' E 010°12'0 0.0
2017-Jun-19 03:30N 42°49' E 010°12'0 0.0
2017-Jun-19 03:00N 42°49' E 010°12'0 0.0
2017-Jun-19 02:30N 42°49' E 010°12'0 0.0
2017-Jun-19 01:59N 42°49' E 010°12'0 0.0
2017-Jun-19 01:30N 42°49' E 010°12'0 0.0
2017-Jun-19 01:00N 42°49' E 010°12'0 0.0
2017-Jun-19 00:30N 42°49' E 010°12'0 0.0
2017-Jun-19 00:00N 42°49' E 010°12'0 0.0
2017-Jun-18 23:30N 42°49' E 010°12'0 0.0
2017-Jun-18 23:00N 42°49' E 010°12'0 0.0
2017-Jun-18 22:30N 42°49' E 010°12'0 0.0
2017-Jun-18 22:00N 42°49' E 010°12'0 0.0
2017-Jun-18 21:30N 42°49' E 010°12'0 0.0
2017-Jun-18 21:00N 42°49' E 010°12'0 0.0
2017-Jun-18 20:30N 42°49' E 010°12'0 0.0
2017-Jun-18 17:26N 42°49' E 010°12'0 0.0
2017-Jun-18 16:28N 42°49' E 010°12'2 5.2
2017-Jun-18 16:00N 42°49' E 010°09'1 0.6
2017-Jun-18 14:30N 42°48' E 010°07'3 6.6
2017-Jun-18 14:00N 42°48' E 010°12'0 0.0
2017-Jun-18 09:41N 42°48' E 010°12'0 0.1
2017-Jun-18 09:28N 42°48' E 010°12'0 0.0
2017-Jun-18 08:55N 42°48' E 010°12'0 0.4
2017-Jun-18 08:30N 42°49' E 010°12'0 0.0
2017-Jun-18 08:00N 42°49' E 010°12'0 0.0
2017-Jun-18 07:30N 42°49' E 010°12'0 0.0
2017-Jun-18 07:00N 42°49' E 010°12'0 0.0
2017-Jun-18 06:30N 42°49' E 010°12'0 0.0
2017-Jun-18 06:00N 42°49' E 010°12'0 0.0
2017-Jun-18 05:30N 42°49' E 010°12'0 0.0
2017-Jun-18 05:00N 42°49' E 010°12'0 0.0
2017-Jun-18 04:30N 42°49' E 010°12'0 0.0
2017-Jun-18 04:00N 42°49' E 010°12'0 0.0
2017-Jun-18 03:30N 42°49' E 010°12'0 0.0
2017-Jun-18 03:00N 42°49' E 010°12'0 0.0
2017-Jun-18 02:30N 42°49' E 010°12'0 0.0
2017-Jun-18 02:00N 42°49' E 010°12'0 0.0
2017-Jun-18 01:30N 42°49' E 010°12'0 0.0
2017-Jun-18 01:00N 42°49' E 010°12'0 0.0
2017-Jun-18 00:30N 42°49' E 010°12'0 0.0
2017-Jun-18 00:00N 42°49' E 010°12'0 0.0
2017-Jun-17 23:29N 42°49' E 010°12'0 0.0
2017-Jun-17 23:00N 42°49' E 010°12'0 0.0
2017-Jun-17 21:57N 42°49' E 010°12'0 0.0
2017-Jun-17 21:29N 42°49' E 010°12'0 0.0
2017-Jun-17 21:00N 42°49' E 010°12'0 0.0
2017-Jun-17 20:30N 42°49' E 010°12'0 0.0
2017-Jun-17 19:55N 42°49' E 010°12'0 0.0
2017-Jun-17 19:30N 42°49' E 010°12'0 0.0
2017-Jun-17 18:24N 42°49' E 010°12'0 0.0
2017-Jun-17 17:52N 42°49' E 010°12'0 0.0
2017-Jun-17 17:30N 42°49' E 010°12'0 0.0
2017-Jun-17 17:00N 42°49' E 010°12'0 0.0
2017-Jun-17 16:30N 42°49' E 010°12'0 0.3
2017-Jun-17 16:00N 42°48' E 010°12'3 5.8
2017-Jun-17 15:28N 42°49' E 010°08'3 7.0
2017-Jun-17 15:00N 42°46' E 010°06'0 0.7
2017-Jun-17 14:28N 42°46' E 010°06'10 2.0
2017-Jun-17 09:41N 42°49' E 010°19'2 8.3
2017-Jun-17 09:30N 42°50' E 010°17'1 1.6
2017-Jun-17 09:00N 42°50' E 010°18'2 1.7
2017-Jun-17 07:48N 42°49' E 010°20'5 7.2
2017-Jun-17 07:09N 42°49' E 010°14'1 6.4
2017-Jun-17 06:57N 42°49' E 010°12'0 0.4
2017-Jun-17 06:27N 42°49' E 010°12'0 0.0
2017-Jun-17 05:50N 42°49' E 010°12'0 0.0
2017-Jun-17 05:30N 42°49' E 010°12'0 0.0
2017-Jun-17 05:00N 42°49' E 010°12'0 0.0
2017-Jun-17 04:30N 42°49' E 010°12'0 0.0
2017-Jun-17 04:00N 42°49' E 010°12'0 0.0
2017-Jun-17 03:28N 42°49' E 010°12'0 0.0
2017-Jun-17 03:00N 42°49' E 010°12'0 0.0
2017-Jun-17 02:30N 42°49' E 010°12'0 0.0
2017-Jun-17 01:56N 42°49' E 010°12'0 0.0
2017-Jun-17 01:20N 42°49' E 010°12'0 0.0
2017-Jun-17 01:00N 42°49' E 010°12'0 0.0
2017-Jun-17 00:29N 42°49' E 010°12'0 0.0
2017-Jun-16 23:59N 42°49' E 010°12'0 0.0
2017-Jun-16 22:07N 42°49' E 010°12'0 0.0
2017-Jun-16 22:00N 42°49' E 010°12'0 0.0
2017-Jun-16 21:30N 42°49' E 010°12'0 0.0
2017-Jun-16 21:00N 42°49' E 010°12'0 0.0
2017-Jun-16 20:30N 42°49' E 010°12'0 0.0
2017-Jun-16 20:00N 42°49' E 010°12'0 0.0
2017-Jun-16 19:30N 42°49' E 010°12'0 0.0
2017-Jun-16 19:00N 42°49' E 010°12'0 0.0
2017-Jun-16 18:02N 42°49' E 010°12'0 0.0
2017-Jun-16 18:00N 42°49' E 010°12'0 0.0
2017-Jun-16 17:28N 42°49' E 010°12'0 0.0
2017-Jun-16 16:59N 42°49' E 010°12'0 0.0
2017-Jun-16 16:30N 42°49' E 010°12'0 0.3
2017-Jun-16 15:59N 42°48' E 010°12'5 5.6
2017-Jun-16 15:10N 42°47' E 010°06'1 1.0
2017-Jun-16 14:25N 42°46' E 010°06'5 5.2
2017-Jun-16 13:30N 42°48' E 010°12'0 0.0
2017-Jun-16 12:58N 42°48' E 010°12'0 0.0
2017-Jun-16 12:29N 42°48' E 010°12'0 0.0
2017-Jun-16 12:00N 42°48' E 010°12'2 3.1
2017-Jun-16 11:30N 42°49' E 010°14'5 5.6
2017-Jun-16 10:41N 42°49' E 010°20'1 2.8
2017-Jun-16 10:29N 42°49' E 010°19'1 1.8
2017-Jun-16 10:00N 42°50' E 010°20'1 0.5
2017-Jun-16 07:53N 42°49' E 010°20'3 6.1
2017-Jun-16 07:24N 42°50' E 010°16'3 7.2
2017-Jun-16 06:56N 42°48' E 010°12'0 0.1
2017-Jun-16 06:30N 42°49' E 010°12'0 0.0
2017-Jun-16 06:00N 42°49' E 010°12'0 0.0
2017-Jun-16 05:30N 42°49' E 010°12'0 0.0
2017-Jun-16 05:00N 42°49' E 010°12'0 0.0
2017-Jun-16 04:29N 42°49' E 010°12'0 0.0
2017-Jun-16 04:00N 42°49' E 010°12'0 0.0
2017-Jun-16 03:30N 42°49' E 010°12'0 0.0
2017-Jun-16 03:00N 42°49' E 010°12'0 0.0
2017-Jun-16 02:15N 42°49' E 010°12'0 0.0
2017-Jun-16 02:00N 42°49' E 010°12'0 0.0
2017-Jun-16 01:30N 42°49' E 010°12'0 0.0
2017-Jun-16 01:00N 42°49' E 010°12'0 0.0
2017-Jun-16 00:30N 42°49' E 010°12'0 0.0
2017-Jun-15 23:58N 42°49' E 010°12'0 0.0
2017-Jun-15 23:21N 42°49' E 010°12'0 0.0
2017-Jun-15 23:00N 42°49' E 010°12'0 0.0
2017-Jun-15 22:29N 42°49' E 010°12'0 0.0
2017-Jun-15 22:00N 42°49' E 010°12'0 0.0
2017-Jun-15 21:30N 42°49' E 010°12'0 0.0
2017-Jun-15 21:00N 42°49' E 010°12'0 0.0
2017-Jun-15 20:30N 42°49' E 010°12'0 0.0
2017-Jun-15 20:00N 42°49' E 010°12'0 0.0
2017-Jun-15 19:30N 42°49' E 010°12'0 0.0
2017-Jun-15 19:00N 42°49' E 010°12'0 0.0
2017-Jun-15 18:30N 42°49' E 010°12'0 0.0
2017-Jun-15 18:00N 42°49' E 010°12'0 0.0
2017-Jun-15 17:30N 42°49' E 010°12'0 0.0
2017-Jun-15 17:00N 42°49' E 010°12'0 0.0
2017-Jun-15 16:30N 42°49' E 010°12'0 0.2
2017-Jun-15 15:59N 42°49' E 010°12'5 5.0
2017-Jun-15 14:56N 42°45' E 010°07'2 3.8
2017-Jun-15 14:26N 42°46' E 010°06'5 5.0
2017-Jun-15 13:30N 42°48' E 010°12'0 0.0
2017-Jun-15 12:59N 42°48' E 010°12'0 0.0
2017-Jun-15 12:30N 42°48' E 010°12'0 0.0
2017-Jun-15 12:00N 42°48' E 010°12'0 0.9
2017-Jun-15 11:30N 42°49' E 010°12'5 7.9
2017-Jun-15 10:55N 42°50' E 010°19'1 1.0
2017-Jun-15 09:30N 42°50' E 010°17'4 1.4
2017-Jun-15 06:51N 42°48' E 010°12'0 0.3
2017-Jun-15 06:30N 42°49' E 010°12'0 0.0
2017-Jun-15 06:00N 42°49' E 010°12'0 0.0
2017-Jun-15 05:30N 42°49' E 010°12'0 0.0
2017-Jun-15 04:58N 42°49' E 010°12'0 0.0
2017-Jun-15 04:01N 42°49' E 010°12'0 0.0
2017-Jun-15 03:57N 42°49' E 010°12'0 0.0
2017-Jun-15 03:29N 42°49' E 010°12'0 0.0
2017-Jun-15 02:59N 42°49' E 010°12'0 0.0
2017-Jun-15 02:30N 42°49' E 010°12'0 0.0
2017-Jun-15 02:00N 42°49' E 010°12'0 0.0
2017-Jun-15 01:30N 42°49' E 010°12'0 0.0
2017-Jun-15 01:00N 42°49' E 010°12'0 0.0
2017-Jun-15 00:30N 42°49' E 010°12'0 0.0
2017-Jun-15 00:00N 42°49' E 010°12'0 0.0
2017-Jun-14 23:30N 42°49' E 010°12'0 0.0
2017-Jun-14 23:00N 42°49' E 010°12'0 0.0
2017-Jun-14 22:30N 42°49' E 010°12'0 0.0
2017-Jun-14 22:00N 42°49' E 010°12'0 0.0
2017-Jun-14 21:30N 42°49' E 010°12'0 0.0
2017-Jun-14 20:58N 42°49' E 010°12'0 0.0
2017-Jun-14 20:30N 42°49' E 010°12'0 0.0
2017-Jun-14 20:00N 42°49' E 010°12'0 0.0
2017-Jun-14 19:26N 42°49' E 010°12'0 0.0
2017-Jun-14 19:00N 42°49' E 010°12'0 0.0
2017-Jun-14 18:30N 42°49' E 010°12'0 0.0
2017-Jun-14 18:00N 42°49' E 010°12'  

Dump ship's entire track history